createdAt,value
2023-01-12T03:34:37.810Z,98441.27
2023-01-12T03:39:47.357Z,98442.25
2023-01-12T03:44:57.406Z,98439.22
2023-01-12T03:50:04.704Z,98440.67
2023-01-12T03:55:12.092Z,98444.95
2023-01-12T04:00:17.854Z,98447.84
2023-01-12T04:05:21.993Z,98447.35
2023-01-12T04:10:26.191Z,98446.91
2023-01-12T04:15:30.881Z,98436.87
2023-01-12T04:20:35.203Z,98437.36
2023-01-12T04:25:39.589Z,98448.85
2023-01-12T04:30:43.806Z,98451.65
2023-01-12T04:35:48.605Z,98454.27
2023-01-12T04:40:55.135Z,98455.11
2023-01-12T04:45:59.638Z,98457.48
2023-01-12T04:51:03.976Z,98460.38
2023-01-12T04:56:09.255Z,98458.48
2023-01-12T05:01:14.419Z,98458.65
2023-01-12T05:06:18.823Z,98462.85
2023-01-12T05:11:25.476Z,98460.59
2023-01-12T05:16:30.115Z,98466.37
2023-01-12T05:21:34.362Z,98473.45
2023-01-12T05:26:38.612Z,98472.42
2023-01-12T05:31:42.990Z,98469.45
2023-01-12T05:36:47.255Z,98476.98
2023-01-12T05:42:09.756Z,98476.89
2023-01-12T05:47:14.483Z,98473.66
2023-01-12T05:52:18.836Z,98482.17
2023-01-12T05:57:23.322Z,98488.46
2023-01-12T06:02:28.454Z,98490.94
2023-01-12T06:07:33.024Z,98495.45
2023-01-12T06:12:55.093Z,98498.80
2023-01-12T06:17:59.767Z,98500.83
2023-01-12T06:23:04.613Z,98502.06
2023-01-12T06:28:08.769Z,98502.61
2023-01-12T06:33:14.209Z,98503.69
2023-01-12T06:38:19.196Z,98505.99
2023-01-12T06:43:23.343Z,98501.13
2023-01-12T06:48:38.868Z,98503.23
2023-01-12T06:53:44.339Z,98505.88
2023-01-12T06:58:49.114Z,98504.70
2023-01-12T07:03:53.485Z,98503.42
2023-01-12T07:08:58.130Z,98506.15
2023-01-12T07:14:02.885Z,98514.41
2023-01-12T07:19:07.044Z,98514.41
2023-01-12T07:24:11.276Z,98522.48
2023-01-12T07:29:15.505Z,98526.84
2023-01-12T07:34:19.607Z,98529.95
2023-01-12T07:39:24.045Z,98528.64
2023-01-12T07:44:28.664Z,98531.05
2023-01-12T07:49:32.708Z,98526.53
2023-01-12T07:54:37.784Z,98524.25
2023-01-12T07:59:42.480Z,98515.17
2023-01-12T08:04:47.043Z,98525.30
2023-01-12T08:09:51.355Z,98537.77
2023-01-12T08:14:56.016Z,98530.67
2023-01-12T08:20:02.190Z,98523.84
2023-01-12T08:25:10.231Z,98526.27
2023-01-12T08:30:15.951Z,98523.39
2023-01-12T08:35:22.544Z,98527.37
2023-01-12T08:40:47.355Z,98530.77
2023-01-12T08:45:52.094Z,98529.86
2023-01-12T08:50:59.544Z,98525.93
2023-01-12T08:56:03.994Z,98529.36
2023-01-12T09:01:09.243Z,98533.27
2023-01-12T09:06:14.215Z,98534.34
2023-01-12T09:11:18.774Z,98534.98
2023-01-12T09:16:23.392Z,98532.42
2023-01-12T09:21:28.028Z,98525.13
2023-01-12T09:26:33.018Z,98514.89
2023-01-12T09:31:38.224Z,98517.47
2023-01-12T09:36:42.684Z,98513.96
2023-01-12T09:42:06.906Z,98508.97
2023-01-12T09:47:25.678Z,98500.06
2023-01-12T09:52:32.075Z,98493.05
2023-01-12T09:57:52.878Z,98486.58
2023-01-12T10:03:05.743Z,98485.66
2023-01-12T10:08:14.866Z,98483.80
2023-01-12T10:13:19.725Z,98475.11
2023-01-12T10:18:27.655Z,98466.91
2023-01-12T10:23:32.473Z,98474.94
2023-01-12T10:28:37.435Z,98480.72
2023-01-12T10:34:01.631Z,98475.20
2023-01-12T10:39:06.613Z,98472.78
2023-01-12T10:44:15.751Z,98466.40
2023-01-12T10:49:20.926Z,98457.39
2023-01-12T10:54:26.135Z,98461.14
2023-01-12T10:59:31.767Z,98458.42
2023-01-12T11:04:39.366Z,98450.62
2023-01-12T11:09:46.036Z,98448.52
2023-01-12T11:14:59.780Z,98445.41
2023-01-12T11:20:05.278Z,98444.60
2023-01-12T11:25:13.710Z,98428.05
2023-01-12T11:30:21.230Z,98421.67
2023-01-12T11:35:30.344Z,98418.25
2023-01-12T11:40:37.307Z,98410.02
2023-01-12T11:45:47.268Z,98407.10
2023-01-12T11:50:54.330Z,98402.77
2023-01-12T11:56:06.525Z,98394.35
2023-01-12T12:01:16.711Z,98385.50
2023-01-12T12:06:34.656Z,98376.88
2023-01-12T12:11:45.661Z,98372.11
2023-01-12T12:16:54.855Z,98369.15
2023-01-12T12:22:02.436Z,98362.66
2023-01-12T12:27:13.234Z,98357.93
2023-01-12T12:32:22.563Z,98355.75
2023-01-12T12:37:32.936Z,98356.06
2023-01-12T12:43:07.789Z,98355.91
2023-01-12T12:48:15.652Z,98360.73
2023-01-12T12:53:23.208Z,98356.20
2023-01-12T12:58:38.409Z,98352.71
2023-01-12T13:03:49.358Z,98348.58
2023-01-12T13:08:55.025Z,98353.58
2023-01-12T13:14:00.068Z,98349.64
2023-01-12T13:19:07.713Z,98338.56
2023-01-12T13:24:27.464Z,98334.20
2023-01-12T13:29:41.925Z,98335.05
2023-01-12T13:34:46.525Z,98331.23
2023-01-12T13:39:55.245Z,98319.39
2023-01-12T13:44:59.936Z,98311.00
2023-01-12T13:50:04.765Z,98308.86
2023-01-12T13:55:19.849Z,98302.30
2023-01-12T14:00:25.266Z,98311.58
2023-01-12T14:05:37.909Z,98307.05
2023-01-12T14:10:47.196Z,98300.39
2023-01-12T14:16:18.506Z,98298.41
2023-01-12T14:21:25.627Z,98287.93
2023-01-12T14:26:31.525Z,98292.17
2023-01-12T14:31:39.222Z,98295.35
2023-01-12T14:36:45.124Z,98293.93
2023-01-12T14:42:08.545Z,98297.06
2023-01-12T14:47:23.772Z,98289.89
2023-01-12T14:52:31.167Z,98290.33
2023-01-12T14:57:36.356Z,98297.66
2023-01-12T15:02:41.268Z,98306.37
2023-01-12T15:07:54.573Z,98299.10
2023-01-12T15:13:00.170Z,98298.27
2023-01-12T15:18:22.310Z,98300.91
2023-01-12T15:23:47.076Z,98296.45
2023-01-12T15:28:52.150Z,98294.54
2023-01-12T15:33:56.595Z,98289.73
2023-01-12T15:39:01.015Z,98289.41
2023-01-12T15:44:05.530Z,98290.04
2023-01-12T15:49:10.215Z,98294.64
2023-01-12T15:54:14.692Z,98294.61
2023-01-12T15:59:19.213Z,98292.16
2023-01-12T16:09:50.389Z,98292.36
2023-01-12T16:14:56.284Z,98293.30
2023-01-12T16:20:01.155Z,98291.93
2023-01-12T16:25:06.156Z,98285.47
2023-01-12T16:30:13.312Z,98283.00
2023-01-12T16:35:18.404Z,98275.40
2023-01-12T16:40:22.862Z,98267.33
2023-01-12T16:45:27.563Z,98260.70
2023-01-12T16:50:32.203Z,98254.98
2023-01-12T16:55:38.132Z,98249.30
2023-01-12T17:00:42.932Z,98241.40
2023-01-12T17:05:48.713Z,98241.34
2023-01-12T17:10:53.293Z,98239.56
2023-01-12T17:15:57.723Z,98236.95
2023-01-12T17:21:02.724Z,98239.50
2023-01-12T17:26:07.846Z,98237.59
2023-01-12T17:31:12.956Z,98237.70
2023-01-12T17:36:17.380Z,98236.31
2023-01-12T17:41:39.531Z,98230.58
2023-01-12T17:46:44.494Z,98231.69
2023-01-12T17:51:48.952Z,98233.45
2023-01-12T17:56:53.439Z,98233.70
2023-01-12T18:01:57.844Z,98229.59
2023-01-12T18:07:02.291Z,98231.10
2023-01-12T18:12:07.024Z,98229.26
2023-01-12T18:17:11.543Z,98225.53
2023-01-12T18:22:16.102Z,98223.39
2023-01-12T18:27:20.789Z,98222.94
2023-01-12T18:32:25.374Z,98214.80
2023-01-12T18:37:30.485Z,98210.04
2023-01-12T18:42:54.557Z,98205.77
2023-01-12T18:48:17.341Z,98198.65
2023-01-12T18:53:29.371Z,98194.12
2023-01-12T18:58:34.840Z,98192.81
2023-01-12T19:03:39.283Z,98192.44
2023-01-12T19:09:01.592Z,98186.92
2023-01-12T19:14:24.463Z,98189.75
2023-01-12T19:19:31.005Z,98190.21
2023-01-12T19:24:53.098Z,98190.80
2023-01-12T19:29:57.984Z,98191.73
2023-01-12T19:35:10.912Z,98191.90
2023-01-12T19:40:22.683Z,98195.73
2023-01-12T19:45:27.587Z,98191.01
2023-01-12T19:50:31.825Z,98185.61
2023-01-12T19:55:36.128Z,98183.83
2023-01-12T20:00:44.487Z,98178.38
2023-01-12T20:05:50.564Z,98179.57
2023-01-12T20:10:55.618Z,98180.44
2023-01-12T20:16:00.181Z,98182.69
2023-01-12T20:21:08.714Z,98180.67
2023-01-12T20:26:13.363Z,98183.32
2023-01-12T20:31:20.076Z,98188.08
2023-01-12T20:36:25.246Z,98184.48
2023-01-12T20:41:30.086Z,98177.41
2023-01-12T20:46:35.011Z,98173.36
2023-01-12T20:51:39.837Z,98169.86
2023-01-12T20:56:44.258Z,98162.45
2023-01-12T21:01:49.024Z,98168.15
2023-01-12T21:06:54.021Z,98173.05
2023-01-12T21:11:58.893Z,98168.14
2023-01-12T21:17:03.328Z,98166.98
2023-01-12T21:22:07.912Z,98169.42
2023-01-12T21:27:12.356Z,98161.79
2023-01-12T21:32:16.904Z,98164.52
2023-01-12T21:37:22.274Z,98161.81
2023-01-12T21:42:44.389Z,98163.98
2023-01-12T21:47:48.805Z,98159.48
2023-01-12T21:52:53.388Z,98154.02
2023-01-12T21:57:58.066Z,98155.89
2023-01-12T22:03:02.565Z,98153.02
2023-01-12T22:08:06.928Z,98152.08
2023-01-12T22:13:13.994Z,98151.15
2023-01-12T22:18:18.365Z,98149.38
2023-01-12T22:23:22.940Z,98142.92
2023-01-12T22:28:27.094Z,98146.44
2023-01-12T22:33:31.293Z,98145.38
2023-01-12T22:38:35.806Z,98134.77
2023-01-12T22:43:41.046Z,98132.03
2023-01-12T22:48:50.043Z,98130.00
2023-01-12T22:53:55.204Z,98129.02
2023-01-12T22:58:59.876Z,98131.04
2023-01-12T23:04:04.377Z,98129.39
2023-01-12T23:09:11.595Z,98131.36
2023-01-12T23:14:16.659Z,98127.23
2023-01-12T23:19:21.136Z,98124.34
2023-01-12T23:24:25.885Z,98125.06
2023-01-12T23:29:30.417Z,98126.93
2023-01-12T23:34:34.922Z,98118.21
2023-01-12T23:39:39.032Z,98111.42
2023-01-12T23:44:43.136Z,98114.38
2023-01-12T23:49:47.363Z,98113.25
2023-01-12T23:54:53.093Z,98115.73
2023-01-12T23:59:57.603Z,98111.45
